Time;durP1;ratioP1;P1;durP2;ratioP2;P2;SDS_P1;SDS_P2;PMS_P1;PMS_P2;Temp;Humidity;BMP_temperature;BMP_pressure;BME280_temperature;BME280_humidity;BME280_pressure;Samples;Min_cycle;Max_cycle;Signal;HPM_P1;HPM_P2
2023/11/16 00:00:48;;;;;;;;;;;;;;;;;;5053050;28;20293;-62
2023/11/16 00:03:15;;;;;;;;;;;;;;;;;;5053130;28;19928;-62
2023/11/16 00:05:42;;;;;;;;;;;;;;;;;;5052844;28;19928;-63
2023/11/16 00:08:10;;;;;;;;;;;;;;;;;;5052901;28;19928;-62
2023/11/16 00:10:36;;;;;;;;;;;;;;;;;;5052631;28;19928;-62
2023/11/16 00:13:03;;;;;;;;;;;;;;;;;;5053167;28;19925;-63
2023/11/16 00:15:30;;;;;;;;;;;;;;;;;;5052795;28;19931;-62
2023/11/16 00:17:57;;;;;;;;;;;;;;;;;;5053057;28;20030;-62
2023/11/16 00:20:23;;;;;;;;;;;;;;;;;;5052908;28;19920;-62
2023/11/16 00:22:49;;;;;;;;;;;;;;;;;;5053257;28;19925;-62
2023/11/16 00:25:16;;;;;;;;;;;;;;;;;;5052898;28;19921;-62
2023/11/16 00:27:45;;;;;;;;;;;;;;;;;;5053230;28;19943;-62
2023/11/16 00:30:12;;;;;;;;;;;;;;;;;;5052587;28;19921;-62
2023/11/16 00:32:39;;;;;;;;;;;;;;;;;;5053029;28;19935;-62
2023/11/16 00:35:06;;;;;;;;;;;;;;;;;;5052518;28;19928;-62
2023/11/16 00:37:32;;;;;;;;;;;;;;;;;;5052776;28;20293;-62
2023/11/16 00:39:59;;;;;;;;;;;;;;;;;;5052438;28;19921;-61
2023/11/16 00:42:26;;;;;;;;;;;;;;;;;;5052702;28;19920;-61
2023/11/16 00:44:53;;;;;;;;;;;;;;;;;;5052326;28;19920;-62
2023/11/16 00:47:19;;;;;;;;;;;;;;;;;;5052406;28;19925;-62
2023/11/16 00:49:45;;;;;;;;;;;;;;;;;;5054050;28;20045;-62
2023/11/16 00:52:12;;;;;;;;;;;;;;;;;;5056213;28;19920;-63
2023/11/16 00:54:39;;;;;;;;;;;;;;;;;;5056210;28;19920;-63
2023/11/16 00:57:05;;;;;;;;;;;;;;;;;;5056630;28;20246;-63
2023/11/16 00:59:32;;;;;;;;;;;;;;;;;;5056402;28;19921;-62
2023/11/16 01:01:59;;;;;;;;;;;;;;;;;;5056299;28;19921;-62
2023/11/16 01:04:25;;;;;;;;;;;;;;;;;;5056331;28;20298;-62
2023/11/16 01:06:53;;;;;;;;;;;;;;;;;;5056428;28;19920;-62
2023/11/16 01:09:20;;;;;;;;;;;;;;;;;;5056037;28;20278;-62
2023/11/16 01:11:47;;;;;;;;;;;;;;;;;;5056097;28;20370;-63
2023/11/16 01:14:16;;;;;;;;;;;;;;;;;;5055831;28;19921;-63
2023/11/16 01:16:42;;;;;;;;;;;;;;;;;;5055975;28;19927;-62
2023/11/16 01:19:09;;;;;;;;;;;;;;;;;;5056092;28;20282;-62
2023/11/16 01:21:41;;;;;;;;;;;;;;;;;;5055933;28;19939;-61
2023/11/16 01:24:08;;;;;;;;;;;;;;;;;;5056167;28;19928;-63
2023/11/16 01:26:39;;;;;;;;;;;;;;;;;;5055979;28;19921;-63
2023/11/16 01:29:08;;;;;;;;;;;;;;;;;;5055886;28;19920;-63
2023/11/16 01:31:35;;;;;;;;;;;;;;;;;;5055401;28;19920;-62
2023/11/16 01:34:01;;;;;;;;;;;;;;;;;;5055619;28;19924;-63
2023/11/16 01:36:28;;;;;;;;;;;;;;;;;;5055537;28;19928;-63
2023/11/16 01:38:54;;;;;;;;;;;;;;;;;;5055715;28;20289;-63
2023/11/16 01:41:21;;;;;;;;;;;;;;;;;;5055529;28;19924;-63
2023/11/16 01:43:47;;;;;;;;;;;;;;;;;;5055574;28;19921;-63
2023/11/16 01:46:15;;;;;;;;;;;;;;;;;;5055505;28;19920;-63
2023/11/16 01:48:41;;;;;;;;;;;;;;;;;;5055033;28;19924;-63
2023/11/16 01:51:08;;;;;;;;;;;;;;;;;;5055153;28;19921;-62
2023/11/16 01:53:35;;;;;;;;;;;;;;;;;;5055386;28;19921;-62
2023/11/16 01:56:01;;;;;;;;;;;;;;;;;;5055298;28;19921;-62
2023/11/16 01:58:28;;;;;;;;;;;;;;;;;;5055358;28;19921;-62
2023/11/16 02:00:56;;;;;;;;;;;;;;;;;;5054070;28;19921;-62
2023/11/16 02:03:23;;;;;;;;;;;;;;;;;;5055238;28;19928;-63
2023/11/16 02:05:49;;;;;;;;;;;;;;;;;;5054847;28;19936;-61
2023/11/16 02:08:16;;;;;;;;;;;;;;;;;;5055186;28;19921;-63
2023/11/16 02:10:42;;;;;;;;;;;;;;;;;;5054830;28;19928;-62
2023/11/16 02:13:11;;;;;;;;;;;;;;;;;;5054578;28;19927;-62
2023/11/16 02:15:37;;;;;;;;;;;;;;;;;;5054970;28;19944;-62
2023/11/16 02:18:04;;;;;;;;;;;;;;;;;;5055317;28;19925;-62
2023/11/16 02:20:31;;;;;;;;;;;;;;;;;;5054961;28;20290;-62
2023/11/16 02:22:57;;;;;;;;;;;;;;;;;;5055126;28;19921;-62
2023/11/16 02:25:26;;;;;;;;;;;;;;;;;;5054535;28;19920;-62
2023/11/16 02:27:53;;;;;;;;;;;;;;;;;;5055144;28;19927;-62
2023/11/16 02:30:19;;;;;;;;;;;;;;;;;;5054679;28;19928;-63
2023/11/16 02:32:46;;;;;;;;;;;;;;;;;;5054756;28;19927;-62
2023/11/16 02:35:13;;;;;;;;;;;;;;;;;;5054646;28;19920;-63
2023/11/16 02:37:40;;;;;;;;;;;;;;;;;;5054826;28;19928;-63
2023/11/16 02:40:07;;;;;;;;;;;;;;;;;;5054355;28;19921;-62
2023/11/16 02:42:34;;;;;;;;;;;;;;;;;;5054778;28;19921;-62
2023/11/16 02:45:00;;;;;;;;;;;;;;;;;;5054501;28;20298;-63
2023/11/16 02:47:28;;;;;;;;;;;;;;;;;;5054137;28;19920;-63
2023/11/16 02:49:54;;;;;;;;;;;;;;;;;;5054014;28;19928;-63
2023/11/16 02:52:22;;;;;;;;;;;;;;;;;;5053884;28;19927;-63
2023/11/16 02:54:49;;;;;;;;;;;;;;;;;;5053945;28;19928;-63
2023/11/16 02:57:15;;;;;;;;;;;;;;;;;;5054351;28;20246;-64
2023/11/16 02:59:42;;;;;;;;;;;;;;;;;;5054000;28;19925;-62
2023/11/16 03:02:08;;;;;;;;;;;;;;;;;;5054204;28;19921;-63
2023/11/16 03:04:35;;;;;;;;;;;;;;;;;;5053865;28;19928;-63
2023/11/16 03:07:02;;;;;;;;;;;;;;;;;;5053928;28;19920;-63
2023/11/16 03:09:28;;;;;;;;;;;;;;;;;;5053667;28;19921;-63
2023/11/16 03:11:55;;;;;;;;;;;;;;;;;;5053630;28;19921;-63
2023/11/16 03:14:22;;;;;;;;;;;;;;;;;;5053649;28;20289;-63
2023/11/16 03:16:49;;;;;;;;;;;;;;;;;;5053895;28;19920;-62
2023/11/16 03:19:16;;;;;;;;;;;;;;;;;;5053809;28;19930;-63
2023/11/16 03:21:42;;;;;;;;;;;;;;;;;;5053940;28;19932;-63
2023/11/16 03:24:09;;;;;;;;;;;;;;;;;;5053807;28;19935;-63
2023/11/16 03:26:36;;;;;;;;;;;;;;;;;;5053722;28;19928;-63
2023/11/16 03:29:02;;;;;;;;;;;;;;;;;;5053452;28;20300;-62
2023/11/16 03:31:29;;;;;;;;;;;;;;;;;;5053367;28;20377;-62
2023/11/16 03:33:55;;;;;;;;;;;;;;;;;;5053571;28;19928;-64
2023/11/16 03:36:24;;;;;;;;;;;;;;;;;;5053239;28;19928;-64
2023/11/16 03:38:51;;;;;;;;;;;;;;;;;;5053684;28;19921;-63
2023/11/16 03:41:17;;;;;;;;;;;;;;;;;;5053426;28;19921;-62
2023/11/16 03:43:44;;;;;;;;;;;;;;;;;;5053658;28;19928;-63
2023/11/16 03:46:10;;;;;;;;;;;;;;;;;;5053005;28;19928;-63
2023/11/16 03:48:37;;;;;;;;;;;;;;;;;;5052839;28;19927;-62
2023/11/16 03:51:04;;;;;;;;;;;;;;;;;;5053118;28;19925;-63
2023/11/16 03:53:31;;;;;;;;;;;;;;;;;;5052974;28;20369;-62
2023/11/16 03:55:59;;;;;;;;;;;;;;;;;;5053175;28;19928;-63
2023/11/16 03:58:26;;;;;;;;;;;;;;;;;;5053098;28;19921;-63
2023/11/16 04:00:52;;;;;;;;;;;;;;;;;;5053126;28;20038;-63
2023/11/16 04:03:20;;;;;;;;;;;;;;;;;;5051136;28;20404;-63
2023/11/16 04:05:46;;;;;;;;;;;;;;;;;;5051990;28;19921;-63
2023/11/16 04:08:13;;;;;;;;;;;;;;;;;;5052491;28;19935;-63
2023/11/16 04:10:39;;;;;;;;;;;;;;;;;;5053074;28;20350;-62
2023/11/16 04:13:06;;;;;;;;;;;;;;;;;;5053259;28;19945;-63
2023/11/16 04:15:32;;;;;;;;;;;;;;;;;;5053119;28;19927;-63
2023/11/16 04:17:59;;;;;;;;;;;;;;;;;;5053021;28;19943;-63
2023/11/16 04:20:26;;;;;;;;;;;;;;;;;;5053152;28;19927;-62
2023/11/16 04:22:53;;;;;;;;;;;;;;;;;;5053047;28;19921;-63
2023/11/16 04:25:22;;;;;;;;;;;;;;;;;;5055594;28;19921;-62
2023/11/16 04:27:49;;;;;;;;;;;;;;;;;;5057163;28;19928;-62
2023/11/16 04:30:16;;;;;;;;;;;;;;;;;;5056900;28;20289;-63
2023/11/16 04:32:45;;;;;;;;;;;;;;;;;;5056816;28;19935;-63
2023/11/16 04:35:13;;;;;;;;;;;;;;;;;;5056317;28;19921;-62
2023/11/16 04:37:39;;;;;;;;;;;;;;;;;;5056881;28;19927;-62
2023/11/16 04:40:07;;;;;;;;;;;;;;;;;;5056411;28;19928;-62
2023/11/16 04:42:33;;;;;;;;;;;;;;;;;;5056662;28;19920;-63
2023/11/16 04:45:01;;;;;;;;;;;;;;;;;;5056596;28;19921;-63
2023/11/16 04:47:27;;;;;;;;;;;;;;;;;;5056151;28;19927;-63
2023/11/16 04:49:54;;;;;;;;;;;;;;;;;;5056211;28;20238;-63
2023/11/16 04:52:20;;;;;;;;;;;;;;;;;;5056595;28;19921;-63
2023/11/16 04:54:46;;;;;;;;;;;;;;;;;;5056456;28;19921;-63
2023/11/16 04:57:13;;;;;;;;;;;;;;;;;;5056527;28;19921;-64
2023/11/16 04:59:39;;;;;;;;;;;;;;;;;;5056288;28;19921;-63
2023/11/16 05:02:07;;;;;;;;;;;;;;;;;;5056118;28;19921;-63
2023/11/16 05:04:33;;;;;;;;;;;;;;;;;;5056185;28;19921;-63
2023/11/16 05:07:00;;;;;;;;;;;;;;;;;;5056211;28;19921;-63
2023/11/16 05:09:26;;;;;;;;;;;;;;;;;;5055972;28;19928;-64
2023/11/16 05:11:54;;;;;;;;;;;;;;;;;;5056168;28;19920;-63
2023/11/16 05:14:20;;;;;;;;;;;;;;;;;;5056201;28;19920;-64
2023/11/16 05:16:47;;;;;;;;;;;;;;;;;;5055967;28;19920;-63
2023/11/16 05:19:14;;;;;;;;;;;;;;;;;;5055770;28;19921;-63
2023/11/16 05:21:41;;;;;;;;;;;;;;;;;;5055587;28;19928;-63
2023/11/16 05:24:07;;;;;;;;;;;;;;;;;;5055965;28;19921;-63
2023/11/16 05:26:34;;;;;;;;;;;;;;;;;;5055690;28;19921;-63
2023/11/16 05:29:00;;;;;;;;;;;;;;;;;;5055357;28;19928;-64
2023/11/16 05:31:27;;;;;;;;;;;;;;;;;;5055575;28;20258;-63
2023/11/16 05:33:55;;;;;;;;;;;;;;;;;;5055617;28;19930;-64
2023/11/16 05:36:22;;;;;;;;;;;;;;;;;;5054344;28;19927;-63
2023/11/16 05:38:49;;;;;;;;;;;;;;;;;;5055214;28;19920;-64
2023/11/16 05:41:16;;;;;;;;;;;;;;;;;;5055810;28;19944;-63
2023/11/16 05:43:42;;;;;;;;;;;;;;;;;;5055527;28;19928;-64
2023/11/16 05:46:11;;;;;;;;;;;;;;;;;;5055366;28;20325;-63
2023/11/16 05:48:38;;;;;;;;;;;;;;;;;;5055114;28;19929;-64
2023/11/16 05:51:04;;;;;;;;;;;;;;;;;;5055542;28;19928;-64
2023/11/16 05:53:31;;;;;;;;;;;;;;;;;;5055040;28;19921;-63
2023/11/16 05:55:58;;;;;;;;;;;;;;;;;;5054861;28;19928;-64
2023/11/16 05:58:24;;;;;;;;;;;;;;;;;;5055348;28;19928;-63
2023/11/16 06:00:51;;;;;;;;;;;;;;;;;;5055048;28;19935;-63
2023/11/16 06:03:18;;;;;;;;;;;;;;;;;;5054812;28;19928;-64
2023/11/16 06:05:44;;;;;;;;;;;;;;;;;;5054708;28;20326;-64
2023/11/16 06:08:11;;;;;;;;;;;;;;;;;;5054871;28;19928;-64
2023/11/16 06:10:37;;;;;;;;;;;;;;;;;;5054478;28;19921;-63
2023/11/16 06:13:04;;;;;;;;;;;;;;;;;;5054798;28;19920;-64
2023/11/16 06:15:30;;;;;;;;;;;;;;;;;;5054568;28;19928;-63
2023/11/16 06:17:58;;;;;;;;;;;;;;;;;;5055030;28;20274;-64
2023/11/16 06:20:24;;;;;;;;;;;;;;;;;;5054793;28;20286;-64
2023/11/16 06:22:51;;;;;;;;;;;;;;;;;;5054843;28;19921;-64
2023/11/16 06:25:17;;;;;;;;;;;;;;;;;;5054572;28;20042;-63
2023/11/16 06:27:45;;;;;;;;;;;;;;;;;;5054824;28;20281;-63
2023/11/16 06:30:13;;;;;;;;;;;;;;;;;;5054467;28;20342;-63
2023/11/16 06:32:39;;;;;;;;;;;;;;;;;;5054382;28;19920;-63
2023/11/16 06:35:06;;;;;;;;;;;;;;;;;;5054509;28;19925;-63
2023/11/16 06:37:32;;;;;;;;;;;;;;;;;;5054554;28;19920;-63
2023/11/16 06:39:59;;;;;;;;;;;;;;;;;;5054641;28;19927;-63
2023/11/16 06:42:26;;;;;;;;;;;;;;;;;;5054134;28;19931;-63
2023/11/16 06:44:53;;;;;;;;;;;;;;;;;;5054505;28;19921;-63
2023/11/16 06:47:20;;;;;;;;;;;;;;;;;;5053512;28;19921;-63
2023/11/16 06:49:48;;;;;;;;;;;;;;;;;;5054104;28;19924;-63
2023/11/16 06:52:14;;;;;;;;;;;;;;;;;;5054072;28;19920;-63
2023/11/16 06:54:42;;;;;;;;;;;;;;;;;;5053641;28;19925;-63
2023/11/16 06:57:09;;;;;;;;;;;;;;;;;;5054209;28;20285;-63
2023/11/16 06:59:35;;;;;;;;;;;;;;;;;;5053890;28;19920;-62
2023/11/16 07:02:03;;;;;;;;;;;;;;;;;;5053746;28;19927;-63
2023/11/16 07:04:30;;;;;;;;;;;;;;;;;;5054094;28;19921;-62
2023/11/16 07:06:56;;;;;;;;;;;;;;;;;;5053836;28;19925;-63
2023/11/16 07:09:23;;;;;;;;;;;;;;;;;;5053559;28;19921;-63
2023/11/16 07:11:51;;;;;;;;;;;;;;;;;;5053800;28;19921;-62
2023/11/16 07:14:19;;;;;;;;;;;;;;;;;;5053130;28;19921;-62
2023/11/16 07:16:45;;;;;;;;;;;;;;;;;;5053429;28;19921;-62
2023/11/16 07:19:13;;;;;;;;;;;;;;;;;;5053171;28;19921;-62
2023/11/16 07:21:39;;;;;;;;;;;;;;;;;;5053262;28;19920;-62
2023/11/16 07:24:07;;;;;;;;;;;;;;;;;;5053266;28;19920;-62
2023/11/16 07:26:34;;;;;;;;;;;;;;;;;;5053284;28;20008;-63
2023/11/16 07:29:01;;;;;;;;;;;;;;;;;;5053228;28;19927;-63
2023/11/16 07:31:28;;;;;;;;;;;;;;;;;;5053174;28;20019;-63
2023/11/16 07:33:54;;;;;;;;;;;;;;;;;;5053619;28;19921;-63
2023/11/16 07:36:23;;;;;;;;;;;;;;;;;;5053090;28;19921;-63
2023/11/16 07:38:49;;;;;;;;;;;;;;;;;;5053042;28;19921;-63
2023/11/16 07:41:16;;;;;;;;;;;;;;;;;;5052898;28;19921;-63
2023/11/16 07:43:43;;;;;;;;;;;;;;;;;;5053143;28;19921;-63
2023/11/16 07:46:09;;;;;;;;;;;;;;;;;;5052889;28;19935;-63
2023/11/16 07:48:36;;;;;;;;;;;;;;;;;;5052564;28;20003;-63
2023/11/16 07:51:03;;;;;;;;;;;;;;;;;;5052611;28;19974;-63
2023/11/16 07:53:30;;;;;;;;;;;;;;;;;;5053000;28;19927;-63
2023/11/16 07:56:00;;;;;;;;;;;;;;;;;;5053042;28;19921;-62
2023/11/16 07:58:28;;;;;;;;;;;;;;;;;;5052597;28;20293;-62
2023/11/16 08:01:03;;;;;;;;;;;;;;;;;;5052644;28;20380;-63
2023/11/16 08:03:46;;;;;;;;;;;;;;;;;;5052602;28;19991;-63
2023/11/16 08:06:13;;;;;;;;;;;;;;;;;;5053108;28;19916;-63
2023/11/16 08:08:41;;;;;;;;;;;;;;;;;;5052546;28;19927;-63
2023/11/16 08:11:08;;;;;;;;;;;;;;;;;;5052748;28;19921;-63
2023/11/16 08:13:35;;;;;;;;;;;;;;;;;;5053017;28;19928;-63
2023/11/16 08:16:04;;;;;;;;;;;;;;;;;;5053156;28;19921;-63
2023/11/16 08:18:30;;;;;;;;;;;;;;;;;;5052594;28;19921;-63
2023/11/16 08:20:57;;;;;;;;;;;;;;;;;;5052434;28;19928;-63
2023/11/16 08:23:25;;;;;;;;;;;;;;;;;;5052931;28;19921;-63
2023/11/16 08:25:51;;;;;;;;;;;;;;;;;;5052682;28;20389;-63
2023/11/16 08:28:19;;;;;;;;;;;;;;;;;;5052685;28;19943;-64
2023/11/16 08:30:46;;;;;;;;;;;;;;;;;;5052872;28;19921;-63
2023/11/16 08:33:14;;;;;;;;;;;;;;;;;;5052514;28;19936;-63
2023/11/16 08:35:42;;;;;;;;;;;;;;;;;;5052479;28;19921;-63
2023/11/16 08:38:14;;;;;;;;;;;;;;;;;;5052616;28;20330;-63
2023/11/16 08:40:40;;;;;;;;;;;;;;;;;;5052542;28;19928;-64
2023/11/16 08:43:10;;;;;;;;;;;;;;;;;;5052847;28;19928;-63
2023/11/16 08:45:37;;;;;;;;;;;;;;;;;;5052732;28;19944;-63
2023/11/16 08:48:03;;;;;;;;;;;;;;;;;;5052533;28;19921;-63
2023/11/16 08:50:30;;;;;;;;;;;;;;;;;;5052667;28;19932;-63
2023/11/16 08:53:00;;;;;;;;;;;;;;;;;;5052847;28;19920;-63
2023/11/16 08:55:27;;;;;;;;;;;;;;;;;;5052501;28;19928;-63
2023/11/16 08:57:56;;;;;;;;;;;;;;;;;;5052996;28;19920;-63
2023/11/16 09:00:33;;;;;;;;;;;;;;;;;;5052218;28;19927;-63
2023/11/16 09:02:59;;;;;;;;;;;;;;;;;;5052920;28;20389;-63
2023/11/16 09:05:28;;;;;;;;;;;;;;;;;;5052151;28;19920;-63
2023/11/16 09:07:54;;;;;;;;;;;;;;;;;;5052800;28;19921;-64
2023/11/16 09:10:21;;;;;;;;;;;;;;;;;;5053085;28;19940;-64
2023/11/16 09:12:48;;;;;;;;;;;;;;;;;;5055942;28;19921;-64
2023/11/16 09:15:15;;;;;;;;;;;;;;;;;;5055972;28;19921;-64
2023/11/16 09:17:44;;;;;;;;;;;;;;;;;;5056163;28;19928;-63
2023/11/16 09:20:11;;;;;;;;;;;;;;;;;;5056155;28;20039;-64
2023/11/16 09:22:38;;;;;;;;;;;;;;;;;;5056143;28;19921;-63
2023/11/16 09:25:06;;;;;;;;;;;;;;;;;;5055905;28;20301;-63
2023/11/16 09:27:35;;;;;;;;;;;;;;;;;;5056014;28;19921;-63
2023/11/16 09:30:04;;;;;;;;;;;;;;;;;;5055180;28;19921;-63
2023/11/16 09:32:31;;;;;;;;;;;;;;;;;;5055686;28;19921;-63
2023/11/16 09:34:59;;;;;;;;;;;;;;;;;;5055075;28;19921;-63
2023/11/16 09:37:27;;;;;;;;;;;;;;;;;;5055703;28;19944;-63
2023/11/16 09:39:54;;;;;;;;;;;;;;;;;;5055743;28;19921;-63
2023/11/16 09:42:21;;;;;;;;;;;;;;;;;;5055522;28;19921;-62
2023/11/16 09:44:48;;;;;;;;;;;;;;;;;;5055439;28;19928;-63
2023/11/16 09:47:25;;;;;;;;;;;;;;;;;;5055085;28;19920;-63
2023/11/16 09:49:55;;;;;;;;;;;;;;;;;;5055343;28;19920;-63
2023/11/16 09:52:21;;;;;;;;;;;;;;;;;;5055331;28;19920;-63
2023/11/16 09:54:50;;;;;;;;;;;;;;;;;;5055135;28;19920;-63
2023/11/16 09:57:19;;;;;;;;;;;;;;;;;;5055179;28;19921;-63
2023/11/16 09:59:46;;;;;;;;;;;;;;;;;;5055350;28;20262;-63
2023/11/16 10:02:15;;;;;;;;;;;;;;;;;;5055116;28;19921;-63
2023/11/16 10:04:43;;;;;;;;;;;;;;;;;;5055170;28;19928;-64
2023/11/16 10:07:15;;;;;;;;;;;;;;;;;;5055186;28;19924;-63
2023/11/16 10:09:42;;;;;;;;;;;;;;;;;;5055083;28;19928;-63
2023/11/16 10:12:08;;;;;;;;;;;;;;;;;;5055179;28;19930;-64
2023/11/16 10:14:38;;;;;;;;;;;;;;;;;;5054883;28;19944;-63
2023/11/16 10:17:04;;;;;;;;;;;;;;;;;;5054843;28;19932;-63
2023/11/16 10:19:31;;;;;;;;;;;;;;;;;;5054830;28;19947;-63
2023/11/16 10:21:57;;;;;;;;;;;;;;;;;;5053847;28;19921;-63
2023/11/16 10:24:25;;;;;;;;;;;;;;;;;;5054839;28;20300;-63
2023/11/16 10:26:51;;;;;;;;;;;;;;;;;;5054610;28;20365;-64
2023/11/16 10:29:18;;;;;;;;;;;;;;;;;;5054264;28;19921;-63
2023/11/16 10:31:46;;;;;;;;;;;;;;;;;;5054622;28;19920;-64
2023/11/16 10:34:13;;;;;;;;;;;;;;;;;;5054568;28;19920;-63
2023/11/16 10:36:39;;;;;;;;;;;;;;;;;;5054722;28;19921;-64
2023/11/16 10:39:11;;;;;;;;;;;;;;;;;;5054275;28;19920;-63
2023/11/16 10:41:38;;;;;;;;;;;;;;;;;;5054713;28;19921;-63
2023/11/16 10:44:05;;;;;;;;;;;;;;;;;;5054071;28;19925;-63
2023/11/16 10:46:33;;;;;;;;;;;;;;;;;;5054226;28;20353;-63
2023/11/16 10:48:59;;;;;;;;;;;;;;;;;;5054288;28;19928;-64
2023/11/16 10:51:27;;;;;;;;;;;;;;;;;;5053973;28;19920;-63
2023/11/16 10:53:54;;;;;;;;;;;;;;;;;;5054194;28;20342;-63
2023/11/16 10:56:21;;;;;;;;;;;;;;;;;;5053943;28;19931;-63
2023/11/16 10:58:48;;;;;;;;;;;;;;;;;;5054135;28;19935;-63
2023/11/16 11:01:17;;;;;;;;;;;;;;;;;;5053855;28;19928;-63
2023/11/16 11:03:44;;;;;;;;;;;;;;;;;;5054147;28;19920;-63
2023/11/16 11:06:12;;;;;;;;;;;;;;;;;;5054016;28;19932;-63
2023/11/16 11:08:42;;;;;;;;;;;;;;;;;;5053738;28;19921;-64
2023/11/16 11:11:10;;;;;;;;;;;;;;;;;;5053866;28;19920;-63
2023/11/16 11:13:39;;;;;;;;;;;;;;;;;;5053556;28;19920;-63
2023/11/16 11:16:06;;;;;;;;;;;;;;;;;;5053682;28;19921;-63
2023/11/16 11:18:37;;;;;;;;;;;;;;;;;;5053508;28;20382;-64
2023/11/16 11:21:04;;;;;;;;;;;;;;;;;;5053708;28;19920;-63
2023/11/16 11:23:30;;;;;;;;;;;;;;;;;;5053751;28;19925;-63
2023/11/16 11:25:57;;;;;;;;;;;;;;;;;;5053299;28;19924;-63
2023/11/16 11:28:24;;;;;;;;;;;;;;;;;;5053302;28;19927;-63
2023/11/16 11:30:50;;;;;;;;;;;;;;;;;;5053426;28;19931;-62
2023/11/16 11:33:18;;;;;;;;;;;;;;;;;;5053509;28;19928;-63
2023/11/16 11:35:45;;;;;;;;;;;;;;;;;;5053292;28;19927;-63
2023/11/16 11:38:12;;;;;;;;;;;;;;;;;;5053547;28;20301;-63
2023/11/16 11:40:39;;;;;;;;;;;;;;;;;;5053046;28;19921;-63
2023/11/16 11:43:06;;;;;;;;;;;;;;;;;;5053725;28;19921;-63
2023/11/16 11:45:32;;;;;;;;;;;;;;;;;;5053415;28;19921;-63
2023/11/16 11:47:59;;;;;;;;;;;;;;;;;;5052867;28;20395;-63
2023/11/16 11:50:27;;;;;;;;;;;;;;;;;;5052900;28;19921;-63
2023/11/16 11:52:54;;;;;;;;;;;;;;;;;;5053236;28;19943;-62
2023/11/16 11:55:22;;;;;;;;;;;;;;;;;;5053034;28;19927;-63
2023/11/16 11:57:48;;;;;;;;;;;;;;;;;;5053389;28;19928;-63
2023/11/16 12:00:15;;;;;;;;;;;;;;;;;;5052967;28;19921;-63
2023/11/16 12:02:41;;;;;;;;;;;;;;;;;;5053033;28;19924;-63
2023/11/16 12:05:08;;;;;;;;;;;;;;;;;;5052688;28;19921;-63
2023/11/16 12:07:34;;;;;;;;;;;;;;;;;;5053068;28;20350;-62
2023/11/16 12:10:01;;;;;;;;;;;;;;;;;;5053016;28;19944;-62
2023/11/16 12:12:28;;;;;;;;;;;;;;;;;;5052426;28;19920;-62
2023/11/16 12:14:54;;;;;;;;;;;;;;;;;;5052645;28;19940;-63
2023/11/16 12:17:21;;;;;;;;;;;;;;;;;;5052842;28;19927;-63
2023/11/16 12:19:47;;;;;;;;;;;;;;;;;;5053001;28;19966;-63
2023/11/16 12:22:14;;;;;;;;;;;;;;;;;;5052562;28;19928;-63
2023/11/16 12:24:41;;;;;;;;;;;;;;;;;;5052616;28;19920;-63
2023/11/16 12:27:08;;;;;;;;;;;;;;;;;;5052753;28;19920;-63
2023/11/16 12:29:35;;;;;;;;;;;;;;;;;;5052510;28;19931;-63
2023/11/16 12:32:04;;;;;;;;;;;;;;;;;;5052778;28;19925;-63
2023/11/16 12:34:30;;;;;;;;;;;;;;;;;;5052716;28;19928;-63
2023/11/16 12:36:58;;;;;;;;;;;;;;;;;;5052520;28;19928;-63
2023/11/16 12:39:25;;;;;;;;;;;;;;;;;;5052226;28;20035;-63
2023/11/16 12:41:52;;;;;;;;;;;;;;;;;;5052659;28;20385;-62
2023/11/16 12:44:18;;;;;;;;;;;;;;;;;;5052374;28;19920;-64
2023/11/16 12:46:46;;;;;;;;;;;;;;;;;;5055533;28;19928;-63
2023/11/16 12:49:13;;;;;;;;;;;;;;;;;;5056446;28;19928;-63
2023/11/16 12:51:39;;;;;;;;;;;;;;;;;;5056449;28;19920;-62
2023/11/16 12:54:06;;;;;;;;;;;;;;;;;;5056207;28;19921;-62
2023/11/16 12:56:34;;;;;;;;;;;;;;;;;;5056137;28;19927;-63
2023/11/16 12:59:02;;;;;;;;;;;;;;;;;;5056118;28;20023;-62
2023/11/16 13:01:29;;;;;;;;;;;;;;;;;;5056397;28;20285;-63
2023/11/16 13:03:55;;;;;;;;;;;;;;;;;;5056264;28;19921;-62
2023/11/16 13:06:22;;;;;;;;;;;;;;;;;;5056121;28;20358;-62
2023/11/16 13:08:49;;;;;;;;;;;;;;;;;;5056135;28;19920;-62
2023/11/16 13:11:16;;;;;;;;;;;;;;;;;;5056138;28;19921;-63
2023/11/16 13:13:42;;;;;;;;;;;;;;;;;;5055877;28;19924;-62
2023/11/16 13:16:09;;;;;;;;;;;;;;;;;;5055628;28;19928;-62
2023/11/16 13:18:35;;;;;;;;;;;;;;;;;;5055952;28;19920;-62
2023/11/16 13:21:05;;;;;;;;;;;;;;;;;;5055867;28;19948;-62
2023/11/16 13:23:31;;;;;;;;;;;;;;;;;;5055588;28;19928;-62
2023/11/16 13:25:58;;;;;;;;;;;;;;;;;;5055546;28;19921;-62
2023/11/16 13:28:24;;;;;;;;;;;;;;;;;;5055990;28;19928;-62
2023/11/16 13:30:50;;;;;;;;;;;;;;;;;;5055621;28;20277;-62
2023/11/16 13:33:17;;;;;;;;;;;;;;;;;;5055728;28;19928;-62
2023/11/16 13:35:44;;;;;;;;;;;;;;;;;;5055200;28;19927;-63
2023/11/16 13:38:11;;;;;;;;;;;;;;;;;;5055542;28;19928;-62
2023/11/16 13:40:37;;;;;;;;;;;;;;;;;;5055598;28;20282;-63
2023/11/16 13:43:04;;;;;;;;;;;;;;;;;;5055503;28;19920;-62
2023/11/16 13:45:31;;;;;;;;;;;;;;;;;;5055036;28;19921;-62
2023/11/16 13:47:58;;;;;;;;;;;;;;;;;;5055172;28;20293;-62
2023/11/16 13:50:25;;;;;;;;;;;;;;;;;;5055333;28;19920;-62
2023/11/16 13:52:51;;;;;;;;;;;;;;;;;;5055171;28;20369;-62
2023/11/16 13:55:19;;;;;;;;;;;;;;;;;;5054855;28;19920;-62
2023/11/16 13:57:45;;;;;;;;;;;;;;;;;;5054117;28;19920;-62
2023/11/16 14:00:12;;;;;;;;;;;;;;;;;;5054783;28;19927;-62
2023/11/16 14:02:41;;;;;;;;;;;;;;;;;;5054693;28;20362;-62
2023/11/16 14:05:08;;;;;;;;;;;;;;;;;;5055135;28;19921;-62
2023/11/16 14:07:34;;;;;;;;;;;;;;;;;;5055278;28;20297;-62
2023/11/16 14:10:04;;;;;;;;;;;;;;;;;;5054938;28;19928;-63
2023/11/16 14:12:31;;;;;;;;;;;;;;;;;;5055048;28;19928;-62
2023/11/16 14:14:57;;;;;;;;;;;;;;;;;;5054521;28;19920;-62
2023/11/16 14:17:24;;;;;;;;;;;;;;;;;;5054517;28;19927;-62
2023/11/16 14:19:50;;;;;;;;;;;;;;;;;;5054650;28;19921;-62
2023/11/16 14:22:18;;;;;;;;;;;;;;;;;;5054816;28;19931;-62
2023/11/16 14:24:46;;;;;;;;;;;;;;;;;;5054708;28;19920;-62
2023/11/16 14:27:12;;;;;;;;;;;;;;;;;;5054804;28;19925;-63
2023/11/16 14:29:39;;;;;;;;;;;;;;;;;;5054411;28;19927;-62
2023/11/16 14:32:05;;;;;;;;;;;;;;;;;;5054628;28;19921;-62
2023/11/16 14:34:32;;;;;;;;;;;;;;;;;;5054184;28;19920;-62
2023/11/16 14:36:58;;;;;;;;;;;;;;;;;;5054406;28;19921;-62
2023/11/16 14:39:25;;;;;;;;;;;;;;;;;;5054211;28;19920;-62
2023/11/16 14:41:51;;;;;;;;;;;;;;;;;;5053985;28;19921;-62
2023/11/16 14:44:18;;;;;;;;;;;;;;;;;;5054358;28;20309;-62
2023/11/16 14:46:45;;;;;;;;;;;;;;;;;;5053744;28;19928;-64
2023/11/16 14:49:12;;;;;;;;;;;;;;;;;;5053897;28;19928;-62
2023/11/16 14:51:39;;;;;;;;;;;;;;;;;;5053933;28;20281;-62
2023/11/16 14:54:05;;;;;;;;;;;;;;;;;;5054013;28;19924;-63
2023/11/16 14:56:33;;;;;;;;;;;;;;;;;;5053994;28;19928;-63
2023/11/16 14:58:59;;;;;;;;;;;;;;;;;;5054175;28;19921;-62
2023/11/16 15:01:26;;;;;;;;;;;;;;;;;;5053734;28;20333;-62
2023/11/16 15:03:52;;;;;;;;;;;;;;;;;;5053786;28;19921;-63
2023/11/16 15:06:19;;;;;;;;;;;;;;;;;;5053851;28;19927;-62
2023/11/16 15:08:46;;;;;;;;;;;;;;;;;;5053397;28;20289;-62
2023/11/16 15:11:12;;;;;;;;;;;;;;;;;;5052860;28;20359;-62
2023/11/16 15:13:39;;;;;;;;;;;;;;;;;;5053694;28;19927;-62
2023/11/16 15:16:05;;;;;;;;;;;;;;;;;;5053454;28;20369;-62
2023/11/16 15:18:34;;;;;;;;;;;;;;;;;;5053613;28;19921;-62
2023/11/16 15:21:00;;;;;;;;;;;;;;;;;;5053395;28;19921;-62
2023/11/16 15:23:27;;;;;;;;;;;;;;;;;;5053632;28;19921;-62
2023/11/16 15:25:54;;;;;;;;;;;;;;;;;;5053017;28;19921;-62
2023/11/16 15:28:20;;;;;;;;;;;;;;;;;;5053016;28;19991;-62
2023/11/16 15:30:48;;;;;;;;;;;;;;;;;;5053263;28;20468;-62
2023/11/16 15:33:15;;;;;;;;;;;;;;;;;;5053302;28;19921;-62
2023/11/16 15:35:41;;;;;;;;;;;;;;;;;;5053141;28;19928;-62
2023/11/16 15:38:08;;;;;;;;;;;;;;;;;;5053057;28;19920;-62
2023/11/16 15:40:36;;;;;;;;;;;;;;;;;;5053227;28;19921;-62
2023/11/16 15:43:02;;;;;;;;;;;;;;;;;;5053238;28;19927;-62
2023/11/16 15:45:29;;;;;;;;;;;;;;;;;;5053119;28;19920;-62
2023/11/16 15:47:55;;;;;;;;;;;;;;;;;;5052902;28;20377;-63
2023/11/16 15:50:22;;;;;;;;;;;;;;;;;;5053163;28;19920;-62
2023/11/16 15:52:49;;;;;;;;;;;;;;;;;;5052847;28;19920;-63
2023/11/16 15:55:16;;;;;;;;;;;;;;;;;;5052598;28;19928;-62
2023/11/16 15:57:43;;;;;;;;;;;;;;;;;;5052997;28;19928;-62
2023/11/16 16:00:09;;;;;;;;;;;;;;;;;;5052924;28;19928;-63
2023/11/16 16:02:36;;;;;;;;;;;;;;;;;;5053102;28;19921;-62
2023/11/16 16:05:03;;;;;;;;;;;;;;;;;;5052604;28;19928;-62
2023/11/16 16:07:29;;;;;;;;;;;;;;;;;;5052879;28;19995;-62
2023/11/16 16:09:56;;;;;;;;;;;;;;;;;;5052610;28;19920;-62
2023/11/16 16:12:22;;;;;;;;;;;;;;;;;;5053022;28;19921;-62
2023/11/16 16:14:49;;;;;;;;;;;;;;;;;;5052648;28;19921;-63
2023/11/16 16:17:15;;;;;;;;;;;;;;;;;;5052499;28;19921;-63
2023/11/16 16:19:42;;;;;;;;;;;;;;;;;;5052202;28;20277;-62
2023/11/16 16:22:08;;;;;;;;;;;;;;;;;;5052678;28;19927;-62
2023/11/16 16:24:35;;;;;;;;;;;;;;;;;;5052326;28;19924;-62
2023/11/16 16:27:04;;;;;;;;;;;;;;;;;;5052622;28;19921;-62
2023/11/16 16:29:31;;;;;;;;;;;;;;;;;;5052178;28;19921;-62
2023/11/16 16:31:57;;;;;;;;;;;;;;;;;;5052228;28;19920;-62
2023/11/16 16:34:27;;;;;;;;;;;;;;;;;;5052829;28;20010;-62
2023/11/16 16:36:54;;;;;;;;;;;;;;;;;;5052621;28;19925;-63
2023/11/16 16:39:21;;;;;;;;;;;;;;;;;;5052563;28;19921;-62
2023/11/16 16:41:52;;;;;;;;;;;;;;;;;;5053592;28;19921;-62
2023/11/16 16:44:18;;;;;;;;;;;;;;;;;;5052250;28;19928;-63